sensor_id;sensor_type;location;lat;lon;timestamp;P1;durP1;ratioP1;P2;durP2;ratioP2
26211;SDS011;13951;49.516;6.094;2023-07-02T00:02:10;4.15;;;2.15;;
26211;SDS011;13951;49.516;6.094;2023-07-02T00:04:43;5.45;;;2.63;;
26211;SDS011;13951;49.516;6.094;2023-07-02T00:07:18;4.03;;;2.13;;
26211;SDS011;13951;49.516;6.094;2023-07-02T00:09:51;3.65;;;2.47;;
26211;SDS011;13951;49.516;6.094;2023-07-02T00:12:25;5.10;;;2.35;;
26211;SDS011;13951;49.516;6.094;2023-07-02T00:14:59;3.90;;;2.58;;
26211;SDS011;13951;49.516;6.094;2023-07-02T00:17:33;5.53;;;2.30;;
26211;SDS011;13951;49.516;6.094;2023-07-02T00:20:07;3.63;;;2.50;;
26211;SDS011;13951;49.516;6.094;2023-07-02T00:22:48;5.93;;;2.60;;
26211;SDS011;13951;49.516;6.094;2023-07-02T00:25:21;5.05;;;2.90;;
26211;SDS011;13951;49.516;6.094;2023-07-02T00:27:55;5.82;;;3.28;;
26211;SDS011;13951;49.516;6.094;2023-07-02T00:30:28;6.70;;;2.75;;
26211;SDS011;13951;49.516;6.094;2023-07-02T00:33:02;5.03;;;3.40;;
26211;SDS011;13951;49.516;6.094;2023-07-02T00:35:35;9.60;;;3.72;;
26211;SDS011;13951;49.516;6.094;2023-07-02T00:38:09;7.28;;;3.08;;
26211;SDS011;13951;49.516;6.094;2023-07-02T00:40:42;7.72;;;3.97;;
26211;SDS011;13951;49.516;6.094;2023-07-02T00:43:15;7.55;;;3.72;;
26211;SDS011;13951;49.516;6.094;2023-07-02T00:45:48;8.95;;;3.95;;
26211;SDS011;13951;49.516;6.094;2023-07-02T00:48:22;5.72;;;3.70;;
26211;SDS011;13951;49.516;6.094;2023-07-02T00:50:55;8.60;;;3.95;;
26211;SDS011;13951;49.516;6.094;2023-07-02T00:53:30;11.38;;;4.20;;
26211;SDS011;13951;49.516;6.094;2023-07-02T00:56:05;7.15;;;3.80;;
26211;SDS011;13951;49.516;6.094;2023-07-02T00:58:40;8.95;;;4.05;;
26211;SDS011;13951;49.516;6.094;2023-07-02T01:01:22;8.85;;;3.95;;
26211;SDS011;13951;49.516;6.094;2023-07-02T01:06:32;8.38;;;4.20;;
26211;SDS011;13951;49.516;6.094;2023-07-02T01:09:06;9.38;;;4.40;;
26211;SDS011;13951;49.516;6.094;2023-07-02T01:11:40;8.15;;;4.20;;
26211;SDS011;13951;49.516;6.094;2023-07-02T01:14:17;10.10;;;4.57;;
26211;SDS011;13951;49.516;6.094;2023-07-02T01:16:51;5.90;;;4.07;;
26211;SDS011;13951;49.516;6.094;2023-07-02T01:19:42;7.68;;;4.20;;
26211;SDS011;13951;49.516;6.094;2023-07-02T01:22:16;10.23;;;4.57;;
26211;SDS011;13951;49.516;6.094;2023-07-02T01:24:50;9.57;;;4.13;;
26211;SDS011;13951;49.516;6.094;2023-07-02T01:27:24;7.43;;;4.45;;
26211;SDS011;13951;49.516;6.094;2023-07-02T01:30:00;9.80;;;4.05;;
26211;SDS011;13951;49.516;6.094;2023-07-02T01:32:34;10.07;;;4.72;;
26211;SDS011;13951;49.516;6.094;2023-07-02T01:35:08;9.57;;;5.28;;
26211;SDS011;13951;49.516;6.094;2023-07-02T01:37:41;8.25;;;4.72;;
26211;SDS011;13951;49.516;6.094;2023-07-02T01:40:15;9.77;;;4.82;;
26211;SDS011;13951;49.516;6.094;2023-07-02T01:42:48;12.07;;;4.85;;
26211;SDS011;13951;49.516;6.094;2023-07-02T01:45:22;8.57;;;5.18;;
26211;SDS011;13951;49.516;6.094;2023-07-02T01:47:55;11.27;;;5.20;;
26211;SDS011;13951;49.516;6.094;2023-07-02T01:50:28;11.93;;;5.57;;
26211;SDS011;13951;49.516;6.094;2023-07-02T01:53:02;11.02;;;5.47;;
26211;SDS011;13951;49.516;6.094;2023-07-02T01:55:35;9.25;;;4.95;;
26211;SDS011;13951;49.516;6.094;2023-07-02T01:58:08;13.77;;;6.00;;
26211;SDS011;13951;49.516;6.094;2023-07-02T02:00:42;12.20;;;5.55;;
26211;SDS011;13951;49.516;6.094;2023-07-02T02:03:15;9.43;;;5.38;;
26211;SDS011;13951;49.516;6.094;2023-07-02T02:05:49;11.98;;;5.47;;
26211;SDS011;13951;49.516;6.094;2023-07-02T02:08:23;10.40;;;5.70;;
26211;SDS011;13951;49.516;6.094;2023-07-02T02:10:57;10.25;;;5.20;;
26211;SDS011;13951;49.516;6.094;2023-07-02T02:13:31;12.43;;;5.47;;
26211;SDS011;13951;49.516;6.094;2023-07-02T02:16:05;11.80;;;5.45;;
26211;SDS011;13951;49.516;6.094;2023-07-02T02:18:39;14.07;;;5.70;;
26211;SDS011;13951;49.516;6.094;2023-07-02T02:21:12;11.18;;;5.70;;
26211;SDS011;13951;49.516;6.094;2023-07-02T02:23:46;14.13;;;5.93;;
26211;SDS011;13951;49.516;6.094;2023-07-02T02:26:20;10.60;;;5.75;;
26211;SDS011;13951;49.516;6.094;2023-07-02T02:28:54;11.70;;;5.78;;
26211;SDS011;13951;49.516;6.094;2023-07-02T02:31:27;12.07;;;5.32;;
26211;SDS011;13951;49.516;6.094;2023-07-02T02:34:01;10.48;;;6.30;;
26211;SDS011;13951;49.516;6.094;2023-07-02T02:36:35;11.18;;;5.80;;
26211;SDS011;13951;49.516;6.094;2023-07-02T02:39:08;10.27;;;5.50;;
26211;SDS011;13951;49.516;6.094;2023-07-02T02:41:41;15.73;;;6.07;;
26211;SDS011;13951;49.516;6.094;2023-07-02T02:44:18;13.68;;;5.80;;
26211;SDS011;13951;49.516;6.094;2023-07-02T02:46:51;13.73;;;6.30;;
26211;SDS011;13951;49.516;6.094;2023-07-02T02:49:25;11.25;;;5.72;;
26211;SDS011;13951;49.516;6.094;2023-07-02T02:51:58;10.23;;;5.60;;
26211;SDS011;13951;49.516;6.094;2023-07-02T02:54:32;7.82;;;5.03;;
26211;SDS011;13951;49.516;6.094;2023-07-02T02:57:06;10.98;;;5.93;;
26211;SDS011;13951;49.516;6.094;2023-07-02T02:59:39;11.00;;;5.53;;
26211;SDS011;13951;49.516;6.094;2023-07-02T03:02:13;12.57;;;5.63;;
26211;SDS011;13951;49.516;6.094;2023-07-02T03:04:46;12.13;;;5.67;;
26211;SDS011;13951;49.516;6.094;2023-07-02T03:07:21;12.87;;;5.77;;
26211;SDS011;13951;49.516;6.094;2023-07-02T03:09:55;12.27;;;5.50;;
26211;SDS011;13951;49.516;6.094;2023-07-02T03:12:29;12.03;;;6.47;;
26211;SDS011;13951;49.516;6.094;2023-07-02T03:15:02;14.27;;;6.57;;
26211;SDS011;13951;49.516;6.094;2023-07-02T03:17:36;13.57;;;6.47;;
26211;SDS011;13951;49.516;6.094;2023-07-02T03:20:09;13.30;;;6.63;;
26211;SDS011;13951;49.516;6.094;2023-07-02T03:22:42;12.53;;;6.73;;
26211;SDS011;13951;49.516;6.094;2023-07-02T03:25:17;13.03;;;6.40;;
26211;SDS011;13951;49.516;6.094;2023-07-02T03:27:50;12.43;;;6.13;;
26211;SDS011;13951;49.516;6.094;2023-07-02T03:30:23;12.67;;;6.97;;
26211;SDS011;13951;49.516;6.094;2023-07-02T03:32:57;16.53;;;7.90;;
26211;SDS011;13951;49.516;6.094;2023-07-02T03:35:30;14.43;;;7.10;;
26211;SDS011;13951;49.516;6.094;2023-07-02T03:38:04;14.55;;;7.35;;
26211;SDS011;13951;49.516;6.094;2023-07-02T03:40:41;14.47;;;7.33;;
26211;SDS011;13951;49.516;6.094;2023-07-02T03:43:15;14.40;;;7.20;;
26211;SDS011;13951;49.516;6.094;2023-07-02T03:45:48;17.42;;;8.07;;
26211;SDS011;13951;49.516;6.094;2023-07-02T03:48:22;16.05;;;8.05;;
26211;SDS011;13951;49.516;6.094;2023-07-02T03:50:55;17.08;;;8.07;;
26211;SDS011;13951;49.516;6.094;2023-07-02T03:53:29;16.80;;;8.93;;
26211;SDS011;13951;49.516;6.094;2023-07-02T03:56:02;17.50;;;8.67;;
26211;SDS011;13951;49.516;6.094;2023-07-02T03:58:35;16.90;;;8.18;;
26211;SDS011;13951;49.516;6.094;2023-07-02T04:01:08;17.20;;;9.32;;
26211;SDS011;13951;49.516;6.094;2023-07-02T04:03:47;19.58;;;8.90;;
26211;SDS011;13951;49.516;6.094;2023-07-02T04:06:21;17.60;;;8.30;;
26211;SDS011;13951;49.516;6.094;2023-07-02T04:08:55;18.07;;;9.07;;
26211;SDS011;13951;49.516;6.094;2023-07-02T04:11:28;21.83;;;9.27;;
26211;SDS011;13951;49.516;6.094;2023-07-02T04:14:02;19.20;;;8.40;;
26211;SDS011;13951;49.516;6.094;2023-07-02T04:16:35;20.97;;;9.47;;
26211;SDS011;13951;49.516;6.094;2023-07-02T04:19:08;16.23;;;9.02;;
26211;SDS011;13951;49.516;6.094;2023-07-02T04:21:42;19.95;;;9.05;;
26211;SDS011;13951;49.516;6.094;2023-07-02T04:24:15;21.27;;;9.82;;
26211;SDS011;13951;49.516;6.094;2023-07-02T04:26:49;19.20;;;9.60;;
26211;SDS011;13951;49.516;6.094;2023-07-02T04:29:43;18.67;;;9.82;;
26211;SDS011;13951;49.516;6.094;2023-07-02T04:32:17;20.52;;;10.43;;
26211;SDS011;13951;49.516;6.094;2023-07-02T04:34:50;19.52;;;10.48;;
26211;SDS011;13951;49.516;6.094;2023-07-02T04:37:24;28.40;;;12.65;;
26211;SDS011;13951;49.516;6.094;2023-07-02T04:39:57;23.93;;;11.43;;
26211;SDS011;13951;49.516;6.094;2023-07-02T04:42:31;21.55;;;11.40;;
26211;SDS011;13951;49.516;6.094;2023-07-02T04:45:07;23.63;;;10.93;;
26211;SDS011;13951;49.516;6.094;2023-07-02T04:47:43;19.02;;;9.90;;
26211;SDS011;13951;49.516;6.094;2023-07-02T04:50:17;20.60;;;10.35;;
26211;SDS011;13951;49.516;6.094;2023-07-02T04:52:51;20.60;;;10.75;;
26211;SDS011;13951;49.516;6.094;2023-07-02T04:55:24;27.65;;;10.95;;
26211;SDS011;13951;49.516;6.094;2023-07-02T04:57:57;23.95;;;10.88;;
26211;SDS011;13951;49.516;6.094;2023-07-02T05:00:31;22.08;;;10.98;;
26211;SDS011;13951;49.516;6.094;2023-07-02T05:03:04;26.17;;;11.25;;
26211;SDS011;13951;49.516;6.094;2023-07-02T05:05:37;24.50;;;11.50;;
26211;SDS011;13951;49.516;6.094;2023-07-02T05:08:11;25.55;;;11.32;;
26211;SDS011;13951;49.516;6.094;2023-07-02T05:10:44;24.33;;;11.43;;
26211;SDS011;13951;49.516;6.094;2023-07-02T05:13:18;26.02;;;11.32;;
26211;SDS011;13951;49.516;6.094;2023-07-02T05:15:51;29.45;;;11.57;;
26211;SDS011;13951;49.516;6.094;2023-07-02T05:18:24;22.40;;;11.73;;
26211;SDS011;13951;49.516;6.094;2023-07-02T05:20:58;27.95;;;12.15;;
26211;SDS011;13951;49.516;6.094;2023-07-02T05:23:31;24.13;;;12.73;;
26211;SDS011;13951;49.516;6.094;2023-07-02T05:26:04;25.38;;;13.23;;
26211;SDS011;13951;49.516;6.094;2023-07-02T05:28:38;26.70;;;12.05;;
26211;SDS011;13951;49.516;6.094;2023-07-02T05:31:11;33.25;;;13.82;;
26211;SDS011;13951;49.516;6.094;2023-07-02T05:33:45;28.17;;;13.27;;
26211;SDS011;13951;49.516;6.094;2023-07-02T05:36:18;30.27;;;12.77;;
26211;SDS011;13951;49.516;6.094;2023-07-02T05:38:51;29.27;;;12.95;;
26211;SDS011;13951;49.516;6.094;2023-07-02T05:41:24;26.92;;;13.13;;
26211;SDS011;13951;49.516;6.094;2023-07-02T05:44:02;26.73;;;13.30;;
26211;SDS011;13951;49.516;6.094;2023-07-02T05:46:35;33.88;;;13.35;;
26211;SDS011;13951;49.516;6.094;2023-07-02T05:49:09;26.27;;;12.93;;
26211;SDS011;13951;49.516;6.094;2023-07-02T05:51:42;28.70;;;13.25;;
26211;SDS011;13951;49.516;6.094;2023-07-02T05:54:15;26.42;;;13.05;;
26211;SDS011;13951;49.516;6.094;2023-07-02T05:56:49;28.02;;;13.50;;
26211;SDS011;13951;49.516;6.094;2023-07-02T05:59:22;29.33;;;13.57;;
26211;SDS011;13951;49.516;6.094;2023-07-02T06:01:55;30.60;;;14.13;;
26211;SDS011;13951;49.516;6.094;2023-07-02T06:04:29;29.23;;;13.40;;
26211;SDS011;13951;49.516;6.094;2023-07-02T06:07:02;28.10;;;12.70;;
26211;SDS011;13951;49.516;6.094;2023-07-02T06:09:36;28.50;;;13.68;;
26211;SDS011;13951;49.516;6.094;2023-07-02T06:12:09;25.65;;;12.63;;
26211;SDS011;13951;49.516;6.094;2023-07-02T06:14:43;26.17;;;12.65;;
26211;SDS011;13951;49.516;6.094;2023-07-02T06:17:16;26.02;;;12.75;;
26211;SDS011;13951;49.516;6.094;2023-07-02T06:19:50;27.73;;;13.18;;
26211;SDS011;13951;49.516;6.094;2023-07-02T06:22:23;29.55;;;14.52;;
26211;SDS011;13951;49.516;6.094;2023-07-02T06:24:57;26.00;;;13.98;;
26211;SDS011;13951;49.516;6.094;2023-07-02T06:27:30;31.10;;;14.23;;
26211;SDS011;13951;49.516;6.094;2023-07-02T06:30:04;31.25;;;14.20;;
26211;SDS011;13951;49.516;6.094;2023-07-02T06:32:38;31.55;;;13.90;;
26211;SDS011;13951;49.516;6.094;2023-07-02T06:35:11;24.90;;;12.60;;
26211;SDS011;13951;49.516;6.094;2023-07-02T06:37:45;26.15;;;13.45;;
26211;SDS011;13951;49.516;6.094;2023-07-02T06:40:19;28.90;;;13.82;;
26211;SDS011;13951;49.516;6.094;2023-07-02T06:42:54;30.77;;;14.90;;
26211;SDS011;13951;49.516;6.094;2023-07-02T06:45:28;28.75;;;13.50;;
26211;SDS011;13951;49.516;6.094;2023-07-02T06:48:01;32.70;;;14.30;;
26211;SDS011;13951;49.516;6.094;2023-07-02T06:50:34;29.20;;;13.63;;
26211;SDS011;13951;49.516;6.094;2023-07-02T06:53:08;26.77;;;12.88;;
26211;SDS011;13951;49.516;6.094;2023-07-02T06:55:41;24.63;;;13.25;;
26211;SDS011;13951;49.516;6.094;2023-07-02T06:58:15;32.08;;;14.55;;
26211;SDS011;13951;49.516;6.094;2023-07-02T07:00:50;26.00;;;13.93;;
26211;SDS011;13951;49.516;6.094;2023-07-02T07:03:23;30.33;;;13.73;;
26211;SDS011;13951;49.516;6.094;2023-07-02T07:05:57;26.42;;;13.48;;
26211;SDS011;13951;49.516;6.094;2023-07-02T07:08:30;23.15;;;12.10;;
26211;SDS011;13951;49.516;6.094;2023-07-02T07:11:04;25.38;;;12.60;;
26211;SDS011;13951;49.516;6.094;2023-07-02T07:13:37;26.17;;;13.57;;
26211;SDS011;13951;49.516;6.094;2023-07-02T07:16:11;27.80;;;13.40;;
26211;SDS011;13951;49.516;6.094;2023-07-02T07:18:45;26.15;;;12.65;;
26211;SDS011;13951;49.516;6.094;2023-07-02T07:21:18;27.88;;;12.57;;
26211;SDS011;13951;49.516;6.094;2023-07-02T07:23:51;26.38;;;13.20;;
26211;SDS011;13951;49.516;6.094;2023-07-02T07:26:25;26.80;;;12.27;;
26211;SDS011;13951;49.516;6.094;2023-07-02T07:28:58;24.27;;;13.57;;
26211;SDS011;13951;49.516;6.094;2023-07-02T07:31:31;27.55;;;13.18;;
26211;SDS011;13951;49.516;6.094;2023-07-02T07:34:05;23.13;;;12.88;;
26211;SDS011;13951;49.516;6.094;2023-07-02T07:36:38;26.05;;;12.95;;
26211;SDS011;13951;49.516;6.094;2023-07-02T07:39:11;30.45;;;12.70;;
26211;SDS011;13951;49.516;6.094;2023-07-02T07:41:47;27.25;;;12.98;;
26211;SDS011;13951;49.516;6.094;2023-07-02T07:44:21;27.35;;;12.65;;
26211;SDS011;13951;49.516;6.094;2023-07-02T07:46:55;26.73;;;12.48;;
26211;SDS011;13951;49.516;6.094;2023-07-02T07:49:28;23.63;;;12.20;;
26211;SDS011;13951;49.516;6.094;2023-07-02T07:52:01;28.02;;;13.38;;
26211;SDS011;13951;49.516;6.094;2023-07-02T07:54:35;25.73;;;12.70;;
26211;SDS011;13951;49.516;6.094;2023-07-02T07:57:09;26.23;;;13.20;;
26211;SDS011;13951;49.516;6.094;2023-07-02T07:59:42;30.58;;;14.02;;
26211;SDS011;13951;49.516;6.094;2023-07-02T08:02:15;27.33;;;13.15;;
26211;SDS011;13951;49.516;6.094;2023-07-02T08:04:49;23.40;;;12.10;;
26211;SDS011;13951;49.516;6.094;2023-07-02T08:07:22;27.90;;;13.20;;
26211;SDS011;13951;49.516;6.094;2023-07-02T08:09:56;24.85;;;12.70;;
26211;SDS011;13951;49.516;6.094;2023-07-02T08:12:29;27.77;;;12.80;;
26211;SDS011;13951;49.516;6.094;2023-07-02T08:15:03;25.52;;;12.90;;
26211;SDS011;13951;49.516;6.094;2023-07-02T08:17:36;28.45;;;12.98;;
26211;SDS011;13951;49.516;6.094;2023-07-02T08:20:10;22.85;;;12.63;;
26211;SDS011;13951;49.516;6.094;2023-07-02T08:22:44;26.13;;;13.20;;
26211;SDS011;13951;49.516;6.094;2023-07-02T08:25:18;24.88;;;12.38;;
26211;SDS011;13951;49.516;6.094;2023-07-02T08:27:53;28.20;;;12.48;;
26211;SDS011;13951;49.516;6.094;2023-07-02T08:30:27;24.95;;;12.88;;
26211;SDS011;13951;49.516;6.094;2023-07-02T08:33:00;26.88;;;12.82;;
26211;SDS011;13951;49.516;6.094;2023-07-02T08:35:33;26.77;;;13.23;;
26211;SDS011;13951;49.516;6.094;2023-07-02T08:38:07;28.02;;;12.93;;
26211;SDS011;13951;49.516;6.094;2023-07-02T08:40:40;30.20;;;12.32;;
26211;SDS011;13951;49.516;6.094;2023-07-02T08:43:14;24.27;;;12.10;;
26211;SDS011;13951;49.516;6.094;2023-07-02T08:45:47;23.92;;;12.07;;
26211;SDS011;13951;49.516;6.094;2023-07-02T08:48:21;65.15;;;14.52;;
26211;SDS011;13951;49.516;6.094;2023-07-02T08:50:56;28.45;;;11.88;;
26211;SDS011;13951;49.516;6.094;2023-07-02T08:53:30;28.85;;;12.90;;
26211;SDS011;13951;49.516;6.094;2023-07-02T08:56:06;23.05;;;12.32;;
26211;SDS011;13951;49.516;6.094;2023-07-02T08:58:39;27.60;;;11.57;;
26211;SDS011;13951;49.516;6.094;2023-07-02T09:01:13;24.77;;;12.05;;
26211;SDS011;13951;49.516;6.094;2023-07-02T09:03:47;27.35;;;12.02;;
26211;SDS011;13951;49.516;6.094;2023-07-02T09:06:22;21.92;;;11.65;;
26211;SDS011;13951;49.516;6.094;2023-07-02T09:09:05;22.90;;;11.20;;
26211;SDS011;13951;49.516;6.094;2023-07-02T09:11:49;21.73;;;11.15;;
26211;SDS011;13951;49.516;6.094;2023-07-02T09:17:08;23.75;;;11.45;;
26211;SDS011;13951;49.516;6.094;2023-07-02T09:19:49;23.83;;;11.55;;
26211;SDS011;13951;49.516;6.094;2023-07-02T09:22:22;24.25;;;11.80;;
26211;SDS011;13951;49.516;6.094;2023-07-02T09:24:56;22.08;;;10.60;;
26211;SDS011;13951;49.516;6.094;2023-07-02T09:27:36;26.58;;;11.93;;
26211;SDS011;13951;49.516;6.094;2023-07-02T09:30:12;24.90;;;11.77;;
26211;SDS011;13951;49.516;6.094;2023-07-02T09:32:46;22.73;;;11.23;;
26211;SDS011;13951;49.516;6.094;2023-07-02T09:35:20;22.92;;;10.88;;
26211;SDS011;13951;49.516;6.094;2023-07-02T09:37:53;21.10;;;10.02;;
26211;SDS011;13951;49.516;6.094;2023-07-02T09:40:26;22.33;;;11.52;;
26211;SDS011;13951;49.516;6.094;2023-07-02T09:43:01;21.85;;;10.85;;
26211;SDS011;13951;49.516;6.094;2023-07-02T09:45:34;21.83;;;11.65;;
26211;SDS011;13951;49.516;6.094;2023-07-02T09:48:08;24.90;;;11.35;;
26211;SDS011;13951;49.516;6.094;2023-07-02T09:50:45;24.40;;;11.63;;
26211;SDS011;13951;49.516;6.094;2023-07-02T09:53:18;23.25;;;11.73;;
26211;SDS011;13951;49.516;6.094;2023-07-02T09:55:52;21.48;;;11.23;;
26211;SDS011;13951;49.516;6.094;2023-07-02T09:58:25;22.70;;;11.25;;
26211;SDS011;13951;49.516;6.094;2023-07-02T10:00:59;24.00;;;11.30;;
26211;SDS011;13951;49.516;6.094;2023-07-02T10:03:32;24.98;;;10.98;;
26211;SDS011;13951;49.516;6.094;2023-07-02T10:06:09;25.42;;;11.80;;
26211;SDS011;13951;49.516;6.094;2023-07-02T10:08:52;24.33;;;11.13;;
26211;SDS011;13951;49.516;6.094;2023-07-02T10:11:35;22.13;;;10.73;;
26211;SDS011;13951;49.516;6.094;2023-07-02T10:14:08;20.75;;;10.25;;
26211;SDS011;13951;49.516;6.094;2023-07-02T10:16:52;31.85;;;11.77;;
26211;SDS011;13951;49.516;6.094;2023-07-02T10:19:26;22.35;;;10.32;;
26211;SDS011;13951;49.516;6.094;2023-07-02T10:22:03;21.50;;;10.90;;
26211;SDS011;13951;49.516;6.094;2023-07-02T10:24:37;22.60;;;10.85;;
26211;SDS011;13951;49.516;6.094;2023-07-02T10:27:10;20.80;;;10.75;;
26211;SDS011;13951;49.516;6.094;2023-07-02T10:29:53;22.70;;;10.95;;
26211;SDS011;13951;49.516;6.094;2023-07-02T10:32:26;18.30;;;10.00;;
26211;SDS011;13951;49.516;6.094;2023-07-02T10:35:01;21.20;;;10.27;;
26211;SDS011;13951;49.516;6.094;2023-07-02T10:37:36;17.40;;;10.38;;
26211;SDS011;13951;49.516;6.094;2023-07-02T10:40:10;17.95;;;10.20;;
26211;SDS011;13951;49.516;6.094;2023-07-02T10:42:48;19.55;;;10.23;;
26211;SDS011;13951;49.516;6.094;2023-07-02T10:45:30;20.20;;;10.38;;
26211;SDS011;13951;49.516;6.094;2023-07-02T10:48:04;20.55;;;10.55;;
26211;SDS011;13951;49.516;6.094;2023-07-02T10:50:41;17.40;;;9.63;;
26211;SDS011;13951;49.516;6.094;2023-07-02T10:53:15;17.23;;;9.50;;
26211;SDS011;13951;49.516;6.094;2023-07-02T10:55:55;18.92;;;9.43;;
26211;SDS011;13951;49.516;6.094;2023-07-02T10:58:30;17.73;;;9.02;;
26211;SDS011;13951;49.516;6.094;2023-07-02T11:01:03;15.38;;;8.93;;
26211;SDS011;13951;49.516;6.094;2023-07-02T11:03:37;18.15;;;9.25;;
26211;SDS011;13951;49.516;6.094;2023-07-02T11:06:10;21.73;;;9.90;;
26211;SDS011;13951;49.516;6.094;2023-07-02T11:08:44;22.83;;;11.18;;
26211;SDS011;13951;49.516;6.094;2023-07-02T11:11:17;19.63;;;9.77;;
26211;SDS011;13951;49.516;6.094;2023-07-02T11:13:51;22.95;;;10.13;;
26211;SDS011;13951;49.516;6.094;2023-07-02T11:16:25;19.33;;;9.70;;
26211;SDS011;13951;49.516;6.094;2023-07-02T11:19:06;21.70;;;9.27;;
26211;SDS011;13951;49.516;6.094;2023-07-02T11:21:50;21.58;;;9.43;;
26211;SDS011;13951;49.516;6.094;2023-07-02T11:24:27;20.83;;;10.23;;
26211;SDS011;13951;49.516;6.094;2023-07-02T11:27:04;18.77;;;9.55;;
26211;SDS011;13951;49.516;6.094;2023-07-02T11:29:38;21.27;;;9.93;;
26211;SDS011;13951;49.516;6.094;2023-07-02T11:32:11;19.80;;;8.95;;
26211;SDS011;13951;49.516;6.094;2023-07-02T11:34:52;19.13;;;8.77;;
26211;SDS011;13951;49.516;6.094;2023-07-02T11:37:26;18.38;;;9.63;;
26211;SDS011;13951;49.516;6.094;2023-07-02T11:40:00;18.45;;;8.82;;
26211;SDS011;13951;49.516;6.094;2023-07-02T11:42:34;18.05;;;8.80;;
26211;SDS011;13951;49.516;6.094;2023-07-02T11:45:07;17.77;;;8.88;;
26211;SDS011;13951;49.516;6.094;2023-07-02T11:47:41;17.33;;;8.38;;
26211;SDS011;13951;49.516;6.094;2023-07-02T11:50:14;19.88;;;8.50;;
26211;SDS011;13951;49.516;6.094;2023-07-02T11:52:57;17.00;;;8.75;;
26211;SDS011;13951;49.516;6.094;2023-07-02T11:55:33;15.05;;;8.73;;
26211;SDS011;13951;49.516;6.094;2023-07-02T11:58:06;16.50;;;8.48;;
26211;SDS011;13951;49.516;6.094;2023-07-02T12:00:39;15.68;;;8.40;;
26211;SDS011;13951;49.516;6.094;2023-07-02T12:03:13;17.63;;;8.80;;
26211;SDS011;13951;49.516;6.094;2023-07-02T12:05:46;17.15;;;8.55;;
26211;SDS011;13951;49.516;6.094;2023-07-02T12:08:21;16.90;;;8.20;;
26211;SDS011;13951;49.516;6.094;2023-07-02T12:10:55;17.98;;;8.60;;
26211;SDS011;13951;49.516;6.094;2023-07-02T12:13:28;17.80;;;9.23;;
26211;SDS011;13951;49.516;6.094;2023-07-02T12:16:02;18.15;;;8.45;;
26211;SDS011;13951;49.516;6.094;2023-07-02T12:18:36;17.17;;;8.20;;
26211;SDS011;13951;49.516;6.094;2023-07-02T12:21:10;17.83;;;8.45;;
26211;SDS011;13951;49.516;6.094;2023-07-02T12:23:43;14.65;;;7.90;;
26211;SDS011;13951;49.516;6.094;2023-07-02T12:26:17;18.58;;;9.15;;
26211;SDS011;13951;49.516;6.094;2023-07-02T12:28:50;21.75;;;9.52;;
26211;SDS011;13951;49.516;6.094;2023-07-02T12:31:24;17.35;;;9.40;;
26211;SDS011;13951;49.516;6.094;2023-07-02T12:33:58;16.02;;;7.85;;
26211;SDS011;13951;49.516;6.094;2023-07-02T12:36:31;20.33;;;8.65;;
26211;SDS011;13951;49.516;6.094;2023-07-02T12:39:05;16.92;;;8.77;;
26211;SDS011;13951;49.516;6.094;2023-07-02T12:41:38;16.88;;;8.10;;
26211;SDS011;13951;49.516;6.094;2023-07-02T12:44:11;16.35;;;8.32;;
26211;SDS011;13951;49.516;6.094;2023-07-02T12:46:45;18.88;;;9.45;;
26211;SDS011;13951;49.516;6.094;2023-07-02T12:49:18;16.58;;;8.48;;
26211;SDS011;13951;49.516;6.094;2023-07-02T12:51:52;19.52;;;8.98;;
26211;SDS011;13951;49.516;6.094;2023-07-02T12:54:25;17.27;;;8.82;;
26211;SDS011;13951;49.516;6.094;2023-07-02T12:56:59;16.80;;;7.55;;
26211;SDS011;13951;49.516;6.094;2023-07-02T12:59:32;20.25;;;9.25;;
26211;SDS011;13951;49.516;6.094;2023-07-02T13:02:06;19.80;;;8.88;;
26211;SDS011;13951;49.516;6.094;2023-07-02T13:04:40;21.00;;;8.95;;
26211;SDS011;13951;49.516;6.094;2023-07-02T13:07:14;18.88;;;8.93;;
26211;SDS011;13951;49.516;6.094;2023-07-02T13:09:47;17.88;;;8.27;;
26211;SDS011;13951;49.516;6.094;2023-07-02T13:12:21;18.80;;;8.77;;
26211;SDS011;13951;49.516;6.094;2023-07-02T13:14:58;18.83;;;8.80;;
26211;SDS011;13951;49.516;6.094;2023-07-02T13:17:33;17.73;;;8.70;;
26211;SDS011;13951;49.516;6.094;2023-07-02T13:20:06;15.68;;;7.90;;
26211;SDS011;13951;49.516;6.094;2023-07-02T13:22:40;18.52;;;8.52;;
26211;SDS011;13951;49.516;6.094;2023-07-02T13:25:13;17.60;;;8.95;;
26211;SDS011;13951;49.516;6.094;2023-07-02T13:27:46;17.52;;;7.72;;
26211;SDS011;13951;49.516;6.094;2023-07-02T13:30:20;15.70;;;8.43;;
26211;SDS011;13951;49.516;6.094;2023-07-02T13:32:53;14.73;;;7.50;;
26211;SDS011;13951;49.516;6.094;2023-07-02T13:35:27;14.48;;;7.70;;
26211;SDS011;13951;49.516;6.094;2023-07-02T13:38:00;16.15;;;7.85;;
26211;SDS011;13951;49.516;6.094;2023-07-02T13:40:33;17.00;;;8.73;;
26211;SDS011;13951;49.516;6.094;2023-07-02T13:43:07;17.25;;;8.70;;
26211;SDS011;13951;49.516;6.094;2023-07-02T13:45:40;15.10;;;8.60;;
26211;SDS011;13951;49.516;6.094;2023-07-02T13:48:13;16.75;;;8.13;;
26211;SDS011;13951;49.516;6.094;2023-07-02T13:50:47;18.40;;;8.68;;
26211;SDS011;13951;49.516;6.094;2023-07-02T13:53:21;14.60;;;7.75;;
26211;SDS011;13951;49.516;6.094;2023-07-02T13:55:54;17.40;;;7.72;;
26211;SDS011;13951;49.516;6.094;2023-07-02T14:01:19;19.00;;;8.73;;
26211;SDS011;13951;49.516;6.094;2023-07-02T14:03:53;15.05;;;7.28;;
26211;SDS011;13951;49.516;6.094;2023-07-02T14:06:27;15.98;;;7.32;;
26211;SDS011;13951;49.516;6.094;2023-07-02T14:09:00;14.80;;;7.30;;
26211;SDS011;13951;49.516;6.094;2023-07-02T14:11:34;13.50;;;6.60;;
26211;SDS011;13951;49.516;6.094;2023-07-02T14:14:07;14.80;;;7.53;;
26211;SDS011;13951;49.516;6.094;2023-07-02T14:16:41;16.30;;;7.18;;
26211;SDS011;13951;49.516;6.094;2023-07-02T14:19:15;15.23;;;7.05;;
26211;SDS011;13951;49.516;6.094;2023-07-02T14:21:49;15.77;;;7.18;;
26211;SDS011;13951;49.516;6.094;2023-07-02T14:24:24;15.27;;;7.25;;
26211;SDS011;13951;49.516;6.094;2023-07-02T14:26:58;14.80;;;7.45;;
26211;SDS011;13951;49.516;6.094;2023-07-02T14:29:32;17.40;;;7.63;;
26211;SDS011;13951;49.516;6.094;2023-07-02T14:32:05;14.85;;;6.70;;
26211;SDS011;13951;49.516;6.094;2023-07-02T14:34:40;15.38;;;7.15;;
26211;SDS011;13951;49.516;6.094;2023-07-02T14:37:13;17.15;;;7.38;;
26211;SDS011;13951;49.516;6.094;2023-07-02T14:39:46;14.85;;;6.57;;
26211;SDS011;13951;49.516;6.094;2023-07-02T14:42:38;11.43;;;6.32;;
26211;SDS011;13951;49.516;6.094;2023-07-02T14:45:11;13.45;;;6.88;;
26211;SDS011;13951;49.516;6.094;2023-07-02T14:47:45;17.80;;;7.00;;
26211;SDS011;13951;49.516;6.094;2023-07-02T14:50:18;17.77;;;7.45;;
26211;SDS011;13951;49.516;6.094;2023-07-02T14:52:51;15.80;;;7.68;;
26211;SDS011;13951;49.516;6.094;2023-07-02T14:55:24;14.63;;;6.80;;
26211;SDS011;13951;49.516;6.094;2023-07-02T14:57:59;13.63;;;6.68;;
26211;SDS011;13951;49.516;6.094;2023-07-02T15:00:33;14.15;;;6.93;;
26211;SDS011;13951;49.516;6.094;2023-07-02T15:03:07;11.82;;;6.68;;
26211;SDS011;13951;49.516;6.094;2023-07-02T15:05:41;19.15;;;6.72;;
26211;SDS011;13951;49.516;6.094;2023-07-02T15:08:15;15.73;;;6.95;;
26211;SDS011;13951;49.516;6.094;2023-07-02T15:10:50;16.40;;;6.35;;
26211;SDS011;13951;49.516;6.094;2023-07-02T15:13:24;15.10;;;7.15;;
26211;SDS011;13951;49.516;6.094;2023-07-02T15:15:57;13.82;;;6.68;;
26211;SDS011;13951;49.516;6.094;2023-07-02T15:18:30;12.68;;;7.03;;
26211;SDS011;13951;49.516;6.094;2023-07-02T15:21:04;13.43;;;6.43;;